sensor_id;sensor_type;location;lat;lon;timestamp;temperature;humidity
20418;DHT22;10368;51.436;6.774;2022-12-29T00:01:41;11.10;99.90
20418;DHT22;10368;51.436;6.774;2022-12-29T00:04:12;11.10;99.90
20418;DHT22;10368;51.436;6.774;2022-12-29T00:06:42;10.90;99.90
20418;DHT22;10368;51.436;6.774;2022-12-29T00:09:11;10.80;99.90
20418;DHT22;10368;51.436;6.774;2022-12-29T00:11:44;10.80;99.90
20418;DHT22;10368;51.436;6.774;2022-12-29T00:14:12;10.70;99.90
20418;DHT22;10368;51.436;6.774;2022-12-29T00:16:58;10.70;99.90
20418;DHT22;10368;51.436;6.774;2022-12-29T00:19:25;10.60;99.90
20418;DHT22;10368;51.436;6.774;2022-12-29T00:22:11;10.60;99.90
20418;DHT22;10368;51.436;6.774;2022-12-29T00:24:57;10.70;99.90
20418;DHT22;10368;51.436;6.774;2022-12-29T00:27:28;10.70;99.90
20418;DHT22;10368;51.436;6.774;2022-12-29T00:30:21;10.70;99.90
20418;DHT22;10368;51.436;6.774;2022-12-29T00:33:15;10.70;99.90
20418;DHT22;10368;51.436;6.774;2022-12-29T00:36:07;10.80;99.90
20418;DHT22;10368;51.436;6.774;2022-12-29T00:38:37;10.90;99.90
20418;DHT22;10368;51.436;6.774;2022-12-29T00:41:24;10.90;99.90
20418;DHT22;10368;51.436;6.774;2022-12-29T00:44:11;10.80;99.90
20418;DHT22;10368;51.436;6.774;2022-12-29T00:46:41;10.90;99.90
20418;DHT22;10368;51.436;6.774;2022-12-29T00:49:10;10.90;99.90
20418;DHT22;10368;51.436;6.774;2022-12-29T00:52:02;10.90;99.90
20418;DHT22;10368;51.436;6.774;2022-12-29T00:54:32;10.80;99.90
20418;DHT22;10368;51.436;6.774;2022-12-29T00:56:59;10.80;99.90
20418;DHT22;10368;51.436;6.774;2022-12-29T00:59:26;10.70;99.90
20418;DHT22;10368;51.436;6.774;2022-12-29T01:01:53;10.70;99.90
20418;DHT22;10368;51.436;6.774;2022-12-29T01:04:22;10.60;99.90
20418;DHT22;10368;51.436;6.774;2022-12-29T01:06:50;10.60;99.90
20418;DHT22;10368;51.436;6.774;2022-12-29T01:09:17;10.60;99.90
20418;DHT22;10368;51.436;6.774;2022-12-29T01:12:04;10.70;99.90
20418;DHT22;10368;51.436;6.774;2022-12-29T01:14:33;10.90;99.90
20418;DHT22;10368;51.436;6.774;2022-12-29T01:17:00;10.90;99.90
20418;DHT22;10368;51.436;6.774;2022-12-29T01:19:26;10.90;99.90
20418;DHT22;10368;51.436;6.774;2022-12-29T01:21:53;11.10;99.90
20418;DHT22;10368;51.436;6.774;2022-12-29T01:24:21;11.10;99.90
20418;DHT22;10368;51.436;6.774;2022-12-29T01:26:48;11.10;99.90
20418;DHT22;10368;51.436;6.774;2022-12-29T01:29:15;11.10;99.90
20418;DHT22;10368;51.436;6.774;2022-12-29T01:31:43;11.10;99.90
20418;DHT22;10368;51.436;6.774;2022-12-29T01:34:10;11.30;99.90
20418;DHT22;10368;51.436;6.774;2022-12-29T01:36:37;11.30;99.90
20418;DHT22;10368;51.436;6.774;2022-12-29T04:25:46;11.40;99.90
20418;DHT22;10368;51.436;6.774;2022-12-29T04:28:14;12.00;99.90
20418;DHT22;10368;51.436;6.774;2022-12-29T04:30:46;12.00;99.90
20418;DHT22;10368;51.436;6.774;2022-12-29T04:33:13;12.10;99.90
20418;DHT22;10368;51.436;6.774;2022-12-29T04:35:41;12.10;99.90
20418;DHT22;10368;51.436;6.774;2022-12-29T04:52:50;12.10;99.90
20418;DHT22;10368;51.436;6.774;2022-12-29T04:55:17;12.30;99.90
20418;DHT22;10368;51.436;6.774;2022-12-29T04:57:44;12.20;99.90
20418;DHT22;10368;51.436;6.774;2022-12-29T05:00:11;12.20;99.90
20418;DHT22;10368;51.436;6.774;2022-12-29T05:02:39;12.20;99.90
20418;DHT22;10368;51.436;6.774;2022-12-29T05:05:07;12.20;99.90
20418;DHT22;10368;51.436;6.774;2022-12-29T05:07:34;12.20;99.90
20418;DHT22;10368;51.436;6.774;2022-12-29T05:10:00;12.10;99.90
20418;DHT22;10368;51.436;6.774;2022-12-29T05:12:34;12.20;99.90
20418;DHT22;10368;51.436;6.774;2022-12-29T05:15:02;12.20;99.90
20418;DHT22;10368;51.436;6.774;2022-12-29T05:17:29;12.30;99.90
20418;DHT22;10368;51.436;6.774;2022-12-29T05:19:56;12.30;99.90
20418;DHT22;10368;51.436;6.774;2022-12-29T05:22:23;12.30;99.90
20418;DHT22;10368;51.436;6.774;2022-12-29T05:24:50;12.30;99.90
20418;DHT22;10368;51.436;6.774;2022-12-29T05:27:17;12.30;99.90
20418;DHT22;10368;51.436;6.774;2022-12-29T05:29:44;12.30;99.90
20418;DHT22;10368;51.436;6.774;2022-12-29T05:32:10;12.30;99.90
20418;DHT22;10368;51.436;6.774;2022-12-29T05:34:37;12.30;99.90
20418;DHT22;10368;51.436;6.774;2022-12-29T05:37:04;12.30;99.90
20418;DHT22;10368;51.436;6.774;2022-12-29T05:39:30;12.20;99.90
20418;DHT22;10368;51.436;6.774;2022-12-29T05:41:57;12.20;99.90
20418;DHT22;10368;51.436;6.774;2022-12-29T05:44:24;12.20;99.90
20418;DHT22;10368;51.436;6.774;2022-12-29T05:46:51;12.10;99.90
20418;DHT22;10368;51.436;6.774;2022-12-29T05:49:18;12.00;99.90
20418;DHT22;10368;51.436;6.774;2022-12-29T05:51:45;12.00;99.90
20418;DHT22;10368;51.436;6.774;2022-12-29T05:54:12;11.90;99.90
20418;DHT22;10368;51.436;6.774;2022-12-29T05:56:39;11.90;99.90
20418;DHT22;10368;51.436;6.774;2022-12-29T05:59:05;11.80;99.90
20418;DHT22;10368;51.436;6.774;2022-12-29T06:01:32;11.70;99.90
20418;DHT22;10368;51.436;6.774;2022-12-29T06:04:00;11.70;99.90
20418;DHT22;10368;51.436;6.774;2022-12-29T06:06:27;11.70;99.90
20418;DHT22;10368;51.436;6.774;2022-12-29T06:08:54;11.60;99.90
20418;DHT22;10368;51.436;6.774;2022-12-29T06:11:21;11.60;99.90
20418;DHT22;10368;51.436;6.774;2022-12-29T06:13:48;11.50;99.90
20418;DHT22;10368;51.436;6.774;2022-12-29T06:16:15;11.50;99.90
20418;DHT22;10368;51.436;6.774;2022-12-29T06:18:42;11.40;99.90
20418;DHT22;10368;51.436;6.774;2022-12-29T06:21:08;11.50;99.90
20418;DHT22;10368;51.436;6.774;2022-12-29T06:23:35;11.40;99.90
20418;DHT22;10368;51.436;6.774;2022-12-29T06:26:02;11.40;99.90
20418;DHT22;10368;51.436;6.774;2022-12-29T06:28:29;11.40;99.90
20418;DHT22;10368;51.436;6.774;2022-12-29T06:30:56;11.40;99.90
20418;DHT22;10368;51.436;6.774;2022-12-29T06:33:23;11.40;99.90
20418;DHT22;10368;51.436;6.774;2022-12-29T06:35:50;11.40;99.90
20418;DHT22;10368;51.436;6.774;2022-12-29T06:38:17;11.40;99.90
20418;DHT22;10368;51.436;6.774;2022-12-29T06:40:44;11.40;99.90
20418;DHT22;10368;51.436;6.774;2022-12-29T06:43:14;11.40;99.90
20418;DHT22;10368;51.436;6.774;2022-12-29T06:45:41;11.60;99.90
20418;DHT22;10368;51.436;6.774;2022-12-29T06:48:07;11.60;99.90
20418;DHT22;10368;51.436;6.774;2022-12-29T06:50:35;11.60;99.90
20418;DHT22;10368;51.436;6.774;2022-12-29T06:53:01;11.60;99.90
20418;DHT22;10368;51.436;6.774;2022-12-29T06:55:28;11.60;99.90
20418;DHT22;10368;51.436;6.774;2022-12-29T06:57:58;11.60;99.90
20418;DHT22;10368;51.436;6.774;2022-12-29T07:00:25;11.60;99.90
20418;DHT22;10368;51.436;6.774;2022-12-29T07:02:55;11.70;99.90
20418;DHT22;10368;51.436;6.774;2022-12-29T07:05:28;11.60;99.90
20418;DHT22;10368;51.436;6.774;2022-12-29T07:07:55;11.70;99.90
20418;DHT22;10368;51.436;6.774;2022-12-29T07:10:25;11.70;99.90
20418;DHT22;10368;51.436;6.774;2022-12-29T07:12:54;11.70;99.90
20418;DHT22;10368;51.436;6.774;2022-12-29T07:15:21;11.70;99.90
20418;DHT22;10368;51.436;6.774;2022-12-29T07:17:48;11.70;99.90
20418;DHT22;10368;51.436;6.774;2022-12-29T07:20:16;11.70;99.90
20418;DHT22;10368;51.436;6.774;2022-12-29T07:22:49;11.70;99.90
20418;DHT22;10368;51.436;6.774;2022-12-29T07:25:30;11.80;99.90
20418;DHT22;10368;51.436;6.774;2022-12-29T07:28:12;11.70;99.90
20418;DHT22;10368;51.436;6.774;2022-12-29T07:30:39;11.70;99.90
20418;DHT22;10368;51.436;6.774;2022-12-29T07:33:06;11.70;99.90
20418;DHT22;10368;51.436;6.774;2022-12-29T07:35:35;11.70;99.90
20418;DHT22;10368;51.436;6.774;2022-12-29T07:38:02;11.70;99.90
20418;DHT22;10368;51.436;6.774;2022-12-29T07:40:29;11.70;99.90
20418;DHT22;10368;51.436;6.774;2022-12-29T07:42:56;11.70;99.90
20418;DHT22;10368;51.436;6.774;2022-12-29T07:45:22;11.80;99.90
20418;DHT22;10368;51.436;6.774;2022-12-29T07:47:50;11.80;99.90
20418;DHT22;10368;51.436;6.774;2022-12-29T07:50:16;11.80;99.90
20418;DHT22;10368;51.436;6.774;2022-12-29T07:52:43;11.70;99.90
20418;DHT22;10368;51.436;6.774;2022-12-29T07:55:11;11.80;99.90
20418;DHT22;10368;51.436;6.774;2022-12-29T07:57:38;11.70;99.90
20418;DHT22;10368;51.436;6.774;2022-12-29T08:00:05;11.70;99.90
20418;DHT22;10368;51.436;6.774;2022-12-29T08:02:32;11.70;99.90
20418;DHT22;10368;51.436;6.774;2022-12-29T08:04:59;11.70;99.90
20418;DHT22;10368;51.436;6.774;2022-12-29T08:07:26;11.70;99.90
20418;DHT22;10368;51.436;6.774;2022-12-29T08:09:53;11.70;99.90
20418;DHT22;10368;51.436;6.774;2022-12-29T08:12:20;11.70;99.90
20418;DHT22;10368;51.436;6.774;2022-12-29T08:14:47;11.60;99.90
20418;DHT22;10368;51.436;6.774;2022-12-29T08:17:14;11.60;99.90
20418;DHT22;10368;51.436;6.774;2022-12-29T08:19:40;11.60;99.90
20418;DHT22;10368;51.436;6.774;2022-12-29T08:22:09;11.70;99.90
20418;DHT22;10368;51.436;6.774;2022-12-29T08:24:36;11.70;99.90
20418;DHT22;10368;51.436;6.774;2022-12-29T08:27:03;11.60;99.90
20418;DHT22;10368;51.436;6.774;2022-12-29T08:29:43;11.60;99.90
20418;DHT22;10368;51.436;6.774;2022-12-29T08:32:10;11.60;99.90
20418;DHT22;10368;51.436;6.774;2022-12-29T08:34:37;11.60;99.90
20418;DHT22;10368;51.436;6.774;2022-12-29T08:37:04;11.60;99.90
20418;DHT22;10368;51.436;6.774;2022-12-29T08:39:31;11.60;99.90
20418;DHT22;10368;51.436;6.774;2022-12-29T08:41:58;11.60;99.90
20418;DHT22;10368;51.436;6.774;2022-12-29T08:44:26;11.60;99.90
20418;DHT22;10368;51.436;6.774;2022-12-29T08:46:53;11.60;99.90
20418;DHT22;10368;51.436;6.774;2022-12-29T08:49:20;11.60;99.90
20418;DHT22;10368;51.436;6.774;2022-12-29T08:51:47;11.60;99.90
20418;DHT22;10368;51.436;6.774;2022-12-29T08:54:13;11.50;99.90
20418;DHT22;10368;51.436;6.774;2022-12-29T08:56:40;11.50;99.90
20418;DHT22;10368;51.436;6.774;2022-12-29T08:59:07;11.50;99.90
20418;DHT22;10368;51.436;6.774;2022-12-29T09:01:34;11.50;99.90
20418;DHT22;10368;51.436;6.774;2022-12-29T09:04:03;11.50;99.90
20418;DHT22;10368;51.436;6.774;2022-12-29T09:06:42;11.50;99.90
20418;DHT22;10368;51.436;6.774;2022-12-29T09:09:09;11.40;99.90
20418;DHT22;10368;51.436;6.774;2022-12-29T09:11:35;11.40;99.90
20418;DHT22;10368;51.436;6.774;2022-12-29T09:14:03;11.40;99.90
20418;DHT22;10368;51.436;6.774;2022-12-29T09:16:30;11.40;99.90
20418;DHT22;10368;51.436;6.774;2022-12-29T09:18:57;11.30;99.90
20418;DHT22;10368;51.436;6.774;2022-12-29T09:21:23;11.40;99.90
20418;DHT22;10368;51.436;6.774;2022-12-29T09:23:50;11.40;99.90
20418;DHT22;10368;51.436;6.774;2022-12-29T09:26:18;11.40;99.90
20418;DHT22;10368;51.436;6.774;2022-12-29T09:28:44;11.40;99.90
20418;DHT22;10368;51.436;6.774;2022-12-29T09:31:12;11.40;99.90
20418;DHT22;10368;51.436;6.774;2022-12-29T09:33:39;11.40;99.90
20418;DHT22;10368;51.436;6.774;2022-12-29T09:36:07;11.40;99.90
20418;DHT22;10368;51.436;6.774;2022-12-29T09:38:34;11.40;99.90
20418;DHT22;10368;51.436;6.774;2022-12-29T09:41:14;11.40;99.90
20418;DHT22;10368;51.436;6.774;2022-12-29T09:46:32;11.40;99.90
20418;DHT22;10368;51.436;6.774;2022-12-29T09:49:27;11.40;99.90
20418;DHT22;10368;51.436;6.774;2022-12-29T09:51:59;11.40;99.90
20418;DHT22;10368;51.436;6.774;2022-12-29T09:54:32;11.40;99.90
20418;DHT22;10368;51.436;6.774;2022-12-29T09:57:01;11.40;99.90
20418;DHT22;10368;51.436;6.774;2022-12-29T09:59:38;11.40;99.90
20418;DHT22;10368;51.436;6.774;2022-12-29T10:04:55;11.50;99.90
20418;DHT22;10368;51.436;6.774;2022-12-29T10:15:53;11.50;99.90
20418;DHT22;10368;51.436;6.774;2022-12-29T10:23:59;11.60;99.90
20418;DHT22;10368;51.436;6.774;2022-12-29T10:26:28;11.60;99.90
20418;DHT22;10368;51.436;6.774;2022-12-29T10:29:04;11.60;99.90
20418;DHT22;10368;51.436;6.774;2022-12-29T10:31:41;11.50;99.90
20418;DHT22;10368;51.436;6.774;2022-12-29T10:34:23;11.50;99.90
20418;DHT22;10368;51.436;6.774;2022-12-29T10:36:57;11.50;99.90
20418;DHT22;10368;51.436;6.774;2022-12-29T10:39:48;11.50;99.90
20418;DHT22;10368;51.436;6.774;2022-12-29T10:44:56;11.50;99.90
20418;DHT22;10368;51.436;6.774;2022-12-29T10:47:33;11.60;99.90
20418;DHT22;10368;51.436;6.774;2022-12-29T10:50:02;11.60;99.90
20418;DHT22;10368;51.436;6.774;2022-12-29T10:52:30;11.60;99.90
20418;DHT22;10368;51.436;6.774;2022-12-29T10:55:04;11.60;99.90
20418;DHT22;10368;51.436;6.774;2022-12-29T10:57:44;11.60;99.90
20418;DHT22;10368;51.436;6.774;2022-12-29T11:00:20;11.60;99.90
20418;DHT22;10368;51.436;6.774;2022-12-29T11:08:22;11.60;99.90
20418;DHT22;10368;51.436;6.774;2022-12-29T11:11:03;11.60;99.90
20418;DHT22;10368;51.436;6.774;2022-12-29T11:17:18;11.60;99.90
20418;DHT22;10368;51.436;6.774;2022-12-29T11:19:45;11.70;99.90
20418;DHT22;10368;51.436;6.774;2022-12-29T11:22:25;11.60;99.90
20418;DHT22;10368;51.436;6.774;2022-12-29T11:24:54;11.60;99.90
20418;DHT22;10368;51.436;6.774;2022-12-29T11:27:31;11.70;99.90
20418;DHT22;10368;51.436;6.774;2022-12-29T11:30:37;11.70;99.90
20418;DHT22;10368;51.436;6.774;2022-12-29T11:33:04;11.70;99.90
20418;DHT22;10368;51.436;6.774;2022-12-29T11:35:41;11.70;99.90
20418;DHT22;10368;51.436;6.774;2022-12-29T11:38:20;11.70;99.90
20418;DHT22;10368;51.436;6.774;2022-12-29T11:40:48;11.80;99.90
20418;DHT22;10368;51.436;6.774;2022-12-29T11:43:29;11.70;99.90
20418;DHT22;10368;51.436;6.774;2022-12-29T11:46:00;11.70;99.90
20418;DHT22;10368;51.436;6.774;2022-12-29T11:48:48;11.70;99.90
20418;DHT22;10368;51.436;6.774;2022-12-29T11:51:41;11.70;99.90
20418;DHT22;10368;51.436;6.774;2022-12-29T11:54:13;11.70;99.90
20418;DHT22;10368;51.436;6.774;2022-12-29T11:56:43;11.70;99.90
20418;DHT22;10368;51.436;6.774;2022-12-29T12:02:27;11.80;99.90
20418;DHT22;10368;51.436;6.774;2022-12-29T12:05:20;11.80;99.90
20418;DHT22;10368;51.436;6.774;2022-12-29T12:08:03;11.80;99.90
20418;DHT22;10368;51.436;6.774;2022-12-29T12:10:35;11.80;99.90
20418;DHT22;10368;51.436;6.774;2022-12-29T12:13:31;11.70;99.90
20418;DHT22;10368;51.436;6.774;2022-12-29T12:18:59;11.70;99.90
20418;DHT22;10368;51.436;6.774;2022-12-29T12:21:39;11.60;99.90
20418;DHT22;10368;51.436;6.774;2022-12-29T12:27:26;11.60;99.90
20418;DHT22;10368;51.436;6.774;2022-12-29T12:30:14;11.70;99.90
20418;DHT22;10368;51.436;6.774;2022-12-29T12:33:22;11.70;99.90
20418;DHT22;10368;51.436;6.774;2022-12-29T12:43:47;11.60;99.90
20418;DHT22;10368;51.436;6.774;2022-12-29T13:03:38;11.60;99.90
20418;DHT22;10368;51.436;6.774;2022-12-29T13:06:35;11.60;99.90
20418;DHT22;10368;51.436;6.774;2022-12-29T13:20:19;11.60;99.90
20418;DHT22;10368;51.436;6.774;2022-12-29T13:29:04;11.50;99.90
20418;DHT22;10368;51.436;6.774;2022-12-29T13:31:56;11.50;99.90
20418;DHT22;10368;51.436;6.774;2022-12-29T13:37:14;11.40;99.90
20418;DHT22;10368;51.436;6.774;2022-12-29T13:39:47;11.40;99.90
20418;DHT22;10368;51.436;6.774;2022-12-29T13:42:17;11.40;99.90
20418;DHT22;10368;51.436;6.774;2022-12-29T13:44:51;11.40;99.90
20418;DHT22;10368;51.436;6.774;2022-12-29T13:47:34;11.40;99.90
20418;DHT22;10368;51.436;6.774;2022-12-29T13:50:08;11.40;99.90
20418;DHT22;10368;51.436;6.774;2022-12-29T14:08:42;11.20;99.90
20418;DHT22;10368;51.436;6.774;2022-12-29T14:11:11;11.10;99.90
20418;DHT22;10368;51.436;6.774;2022-12-29T14:13:40;11.10;99.90
20418;DHT22;10368;51.436;6.774;2022-12-29T14:16:21;11.00;99.90
20418;DHT22;10368;51.436;6.774;2022-12-29T14:18:50;11.00;99.90
20418;DHT22;10368;51.436;6.774;2022-12-29T14:21:18;11.00;99.90
20418;DHT22;10368;51.436;6.774;2022-12-29T14:23:48;11.00;99.90
20418;DHT22;10368;51.436;6.774;2022-12-29T14:28:46;11.00;99.90
20418;DHT22;10368;51.436;6.774;2022-12-29T14:36:36;11.10;99.90
20418;DHT22;10368;51.436;6.774;2022-12-29T14:39:04;11.20;99.90
20418;DHT22;10368;51.436;6.774;2022-12-29T14:44:52;11.20;99.90
20418;DHT22;10368;51.436;6.774;2022-12-29T14:47:36;11.20;99.90
20418;DHT22;10368;51.436;6.774;2022-12-29T14:53:00;11.20;99.90
20418;DHT22;10368;51.436;6.774;2022-12-29T14:55:46;11.20;99.90
20418;DHT22;10368;51.436;6.774;2022-12-29T14:58:26;11.10;99.90
20418;DHT22;10368;51.436;6.774;2022-12-29T15:00:54;11.20;99.90
20418;DHT22;10368;51.436;6.774;2022-12-29T15:03:32;11.10;99.90
20418;DHT22;10368;51.436;6.774;2022-12-29T15:06:05;11.20;99.90
20418;DHT22;10368;51.436;6.774;2022-12-29T15:08:54;11.10;99.90
20418;DHT22;10368;51.436;6.774;2022-12-29T15:11:26;11.10;99.90
20418;DHT22;10368;51.436;6.774;2022-12-29T15:13:57;11.10;99.90
20418;DHT22;10368;51.436;6.774;2022-12-29T15:16:31;11.10;99.90
20418;DHT22;10368;51.436;6.774;2022-12-29T15:18:58;11.10;99.90
20418;DHT22;10368;51.436;6.774;2022-12-29T15:21:36;11.10;99.90
20418;DHT22;10368;51.436;6.774;2022-12-29T15:24:03;11.10;99.90
20418;DHT22;10368;51.436;6.774;2022-12-29T15:26:38;10.90;99.90
20418;DHT22;10368;51.436;6.774;2022-12-29T15:29:34;10.80;99.90
20418;DHT22;10368;51.436;6.774;2022-12-29T15:34:49;10.70;99.90
20418;DHT22;10368;51.436;6.774;2022-12-29T15:37:24;10.70;99.90
20418;DHT22;10368;51.436;6.774;2022-12-29T15:39:54;10.80;99.90
20418;DHT22;10368;51.436;6.774;2022-12-29T15:45:09;10.80;99.90
20418;DHT22;10368;51.436;6.774;2022-12-29T15:47:42;10.80;99.90
20418;DHT22;10368;51.436;6.774;2022-12-29T15:50:23;10.80;99.90
20418;DHT22;10368;51.436;6.774;2022-12-29T15:52:52;10.80;99.90
20418;DHT22;10368;51.436;6.774;2022-12-29T15:55:24;10.80;99.90
20418;DHT22;10368;51.436;6.774;2022-12-29T15:57:58;10.80;99.90
20418;DHT22;10368;51.436;6.774;2022-12-29T16:00:36;10.80;99.90
20418;DHT22;10368;51.436;6.774;2022-12-29T16:03:12;10.70;99.90
20418;DHT22;10368;51.436;6.774;2022-12-29T16:05:40;10.70;99.90
20418;DHT22;10368;51.436;6.774;2022-12-29T16:08:32;10.70;99.90
20418;DHT22;10368;51.436;6.774;2022-12-29T16:11:07;10.70;99.90
20418;DHT22;10368;51.436;6.774;2022-12-29T16:13:48;10.60;99.90
20418;DHT22;10368;51.436;6.774;2022-12-29T16:16:22;10.50;99.90
20418;DHT22;10368;51.436;6.774;2022-12-29T16:18:53;10.50;99.90
20418;DHT22;10368;51.436;6.774;2022-12-29T16:21:30;10.40;99.90
20418;DHT22;10368;51.436;6.774;2022-12-29T16:24:08;10.40;99.90
20418;DHT22;10368;51.436;6.774;2022-12-29T16:26:38;10.40;99.90
20418;DHT22;10368;51.436;6.774;2022-12-29T16:29:07;10.40;99.90
20418;DHT22;10368;51.436;6.774;2022-12-29T16:31:53;10.40;99.90
20418;DHT22;10368;51.436;6.774;2022-12-29T16:34:42;10.40;99.90
20418;DHT22;10368;51.436;6.774;2022-12-29T16:37:33;10.40;99.90
20418;DHT22;10368;51.436;6.774;2022-12-29T16:43:18;10.30;99.90
20418;DHT22;10368;51.436;6.774;2022-12-29T16:50:41;10.30;99.90
20418;DHT22;10368;51.436;6.774;2022-12-29T16:53:37;10.40;99.90
20418;DHT22;10368;51.436;6.774;2022-12-29T16:56:16;10.40;99.90
20418;DHT22;10368;51.436;6.774;2022-12-29T16:58:48;10.10;99.90
20418;DHT22;10368;51.436;6.774;2022-12-29T17:01:16;9.20;99.90
20418;DHT22;10368;51.436;6.774;2022-12-29T17:06:19;9.00;99.90
20418;DHT22;10368;51.436;6.774;2022-12-29T21:45:17;8.10;99.90
20418;DHT22;10368;51.436;6.774;2022-12-29T21:47:51;7.80;99.90
20418;DHT22;10368;51.436;6.774;2022-12-29T21:50:38;7.70;99.90
20418;DHT22;10368;51.436;6.774;2022-12-29T21:53:31;7.70;99.90
20418;DHT22;10368;51.436;6.774;2022-12-29T21:56:12;7.70;99.90
20418;DHT22;10368;51.436;6.774;2022-12-29T21:58:42;7.70;99.90
20418;DHT22;10368;51.436;6.774;2022-12-29T22:01:29;7.60;99.90
20418;DHT22;10368;51.436;6.774;2022-12-29T22:04:17;7.60;99.90
20418;DHT22;10368;51.436;6.774;2022-12-29T22:07:05;7.60;99.90
20418;DHT22;10368;51.436;6.774;2022-12-29T22:09:51;7.60;99.90
